Terminal Aerodrome Forecast
Issued by NWS Shreveport, LA

Home | Current Version | Previous Version | Text Only | Print | Product List | Glossary On
Versions: 1 2 3 4 5 6 7 8 9 10 11 12 13 14
000
FTUS44 KSHV 190300 AAA
TAFMLU
TAF AMD
KMLU 190351Z 1904/1924 00000KT 5SM BR SCT250
      TEMPO 1904/1908 3/4SM BR VV002
     FM190800 00000KT 1SM BR OVC005
      TEMPO 1908/1912 1/4SM FG VV001
     FM191300 00000KT 5SM BR BKN009
     FM191500 09004KT P6SM SCT035=

USA.gov is the U.S. government's official web portal to all federal, state and local government web resources and services.